CAH4 weather

Valemount Airport
Valemount, British Columbia, Canada

Public forecast

Using degrees Celsius for public forecast. Weather courtesy of forecast.io.

Closest aviation weather report (METAR) to Valemount Airport

Report is more than 2 hours old.

Closest report is Blue River Airport, 44.3 nm (82.0 km) S. Retrieved 2020/06/06 01:00 UTC (3 hours ago):

CYCP 060100Z 04004KT 020V120 15SM FEW090 BKN200 20/01 A2963 RMK CU2CI4 LAST STFD OBS/NXT 061300Z SLP045 DENSITY ALT 3700FT

Closest aviation forecast (TAF) to Valemount Airport

Closest forecast is Williams Lake Airport, 107.2 nm (198.5 km) WSW. Retrieved 2020-06-06 01:42 UTC (3 hours ago):

TAF CYWL 060038Z 0601/0613 10010KT P6SM BKN060 TEMPO 0601/0603 VRB15G25KT P6SM TSRA BKN040CB FM060300 VRB03KT P6SM -SHRA BKN060 FM060600 VRB03KT P6SM -RA SCT015 OVC030 TEMPO 0606/0613 4SM -SHRA BR SCT008 OVC015 RMK NXT FCST BY 060700Z